Atlas, Michigan
Current Conditions -  °F | °C
As of 9:53 AM on Thursday 30 Oct 2014 (Local Time) from KFNT Reporting Station
Overcast Overcast  
Wind Chill: 41°   Ceiling: 3800
Heat Index: 41°   Visibility: 10mi
Dew Point: 36°   Wind: 3mph
Humidity: 82%   Direction: 240°WSW
Pressure: 30.14"   Gusts: NA
Location:  42.94°N, 83.53°W
Report Text: KFNT 301353Z 24003KT 10SM OVC038 05/02 A3014 RMK AO2 SLP213 T00500022
Loading
Personal Weather Stations






























Interactive Weather Map
Tropical Storm Tracking
New forecast layout! Learn more

10-Day Weather Forecast

Advertisements
Track Severe Weather on mobile